Krymsk — A8CE4 — position and weather

sailwx.info

Track history (hours):
 
Tides and Currents Weather Stations Pressure Air Temp Water Temp Dewpoint Dewpoint Depression Visibility Wind Speed Wind Dir Waves Ship Positions

Krymsk

Last reported at 2015-Jan-27 14:26 UTC. Time now 2015-Jan-31 21:11 UTC.
Position N 39°17' W 009°56'.

Length 250 m; draft 12.1 m.

Type: Tanker. MMSI: 636011914.

Date/timePositionNaut miles runAvg speedWind from/ knotsBaromVisibWave heightAir tempDewpointWater temp
2015-Jan-27 14:26N 39°17' W 009°56'1213.6
2015-Jan-27 13:32N 39°04' W 009°56'1513.9
2015-Jan-27 12:28N 38°50' W 009°56'1313.7
2015-Jan-27 11:33N 38°37' W 009°54'1413.9
2015-Jan-27 10:33N 38°24' W 009°50'1413.8
2015-Jan-27 09:32N 38°10' W 009°46'1413.9
2015-Jan-27 08:30N 37°56' W 009°42'1313.8
2015-Jan-27 07:32N 37°43' W 009°38'1313.7
2015-Jan-27 06:33N 37°30' W 009°35'1513.7
2015-Jan-27 05:28N 37°15' W 009°31'4212.8
2015-Jan-27 02:12N 36°39' W 009°04'914.4
2015-Jan-27 01:33N 36°36' W 008°53'1514.8
2015-Jan-27 00:33N 36°32' W 008°35'15814.4
2015-Jan-26 13:33N 36°01' W 005°23'  
2015-Jan-23 06:21N 36°40' E 013°39'1012.6
2015-Jan-23 05:33N 36°36' E 013°51'1211.0
2015-Jan-23 04:30N 36°32' E 014°05'1111.6
2015-Jan-23 03:33N 36°29' E 014°18'30113.0
2015-Jan-22 04:25N 35°18' E 020°18'  
Track history (hours):
 
Tides and Currents Weather Stations Pressure Air Temp Water Temp Dewpoint Dewpoint Depression Visibility Wind Speed Wind Dir Waves Ship Positions

Krymsk

Last reported at 2015-Jan-27 14:26 UTC. Time now 2015-Jan-31 21:11 UTC.
Position N 39°17' W 009°56'.

Length 250 m; draft 12.1 m.

Type: Tanker. MMSI: 636011914.

Date/timePositionNaut miles runAvg speedWind from/ knotsBaromVisibWave heightAir tempDewpointWater temp
2015-Jan-27 14:26N 39°17' W 009°56'1213.6
2015-Jan-27 13:32N 39°04' W 009°56'1513.9
2015-Jan-27 12:28N 38°50' W 009°56'1313.7
2015-Jan-27 11:33N 38°37' W 009°54'1413.9
2015-Jan-27 10:33N 38°24' W 009°50'1413.8
2015-Jan-27 09:32N 38°10' W 009°46'1413.9
2015-Jan-27 08:30N 37°56' W 009°42'1313.8
2015-Jan-27 07:32N 37°43' W 009°38'1313.7
2015-Jan-27 06:33N 37°30' W 009°35'1513.7
2015-Jan-27 05:28N 37°15' W 009°31'4212.8
2015-Jan-27 02:12N 36°39' W 009°04'914.4
2015-Jan-27 01:33N 36°36' W 008°53'1514.8
2015-Jan-27 00:33N 36°32' W 008°35'15814.4
2015-Jan-26 13:33N 36°01' W 005°23'  
2015-Jan-23 06:21N 36°40' E 013°39'1012.6
2015-Jan-23 05:33N 36°36' E 013°51'1211.0
2015-Jan-23 04:30N 36°32' E 014°05'1111.6
2015-Jan-23 03:33N 36°29' E 014°18'30113.0
2015-Jan-22 04:25N 35°18' E 020°18'  

Dump ship's entire track history